Time;durP1;ratioP1;P1;durP2;ratioP2;P2;SDS_P1;SDS_P2;PMS_P1;PMS_P2;Temp;Humidity;BMP_temperature;BMP_pressure;BME280_temperature;BME280_humidity;BME280_pressure;Samples;Min_cycle;Max_cycle;Signal;HPM_P1;HPM_P2
2023/02/19 00:01:38;;;;;;;20.27;10.88;;;;;;;8.55;50.71;94917.19;4201416;28;20123;-54
2023/02/19 00:03:41;;;;;;;23.88;11.35;;;;;;;8.55;51.02;94907.56;4211338;28;20044;-52
2023/02/19 00:05:42;;;;;;;20.95;11.35;;;;;;;8.27;51.44;94924.06;4212173;28;20056;-49
2023/02/19 00:07:44;;;;;;;25.15;13.00;;;;;;;7.92;52.19;94915.03;4212233;28;20044;-57
2023/02/19 00:09:46;;;;;;;26.95;12.55;;;;;;;7.86;52.82;94910.38;4197045;28;20049;-58
2023/02/19 00:11:47;;;;;;;25.92;12.55;;;;;;;7.93;52.27;94903.63;4195694;28;20140;-57
2023/02/19 00:13:52;;;;;;;26.08;13.55;;;;;;;7.88;52.66;94916.28;4196116;28;20052;-59
2023/02/19 00:15:55;;;;;;;28.15;13.30;;;;;;;8.05;52.41;94902.53;4194183;28;20060;-58
2023/02/19 00:17:56;;;;;;;23.70;12.17;;;;;;;8.24;52.15;94901.69;4192727;28;20135;-59
2023/02/19 00:19:58;;;;;;;23.25;12.75;;;;;;;8.38;51.67;94903.84;4196884;28;20296;-58
2023/02/19 00:22:00;;;;;;;30.95;13.68;;;;;;;8.52;50.72;94901.81;4190812;28;20052;-58
2023/02/19 00:24:03;;;;;;;21.55;12.13;;;;;;;8.58;51.00;94891.63;4189903;28;20049;-58
2023/02/19 00:26:10;;;;;;;22.67;11.30;;;;;;;8.59;50.85;94890.63;4197581;28;20392;-61
2023/02/19 00:28:19;;;;;;;18.40;10.98;;;;;;;8.60;51.16;94894.06;4202581;28;20040;-61
2023/02/19 00:30:20;;;;;;;24.25;11.75;;;;;;;8.18;51.38;94879.56;4200018;28;20048;-58
2023/02/19 00:32:22;;;;;;;23.95;12.32;;;;;;;8.16;52.04;94885.91;4212376;28;20044;-58
2023/02/19 00:34:24;;;;;;;25.40;12.27;;;;;;;8.27;51.52;94879.69;4208047;28;20059;-58
2023/02/19 00:36:26;;;;;;;24.25;12.65;;;;;;;8.33;51.66;94886.97;4210207;28;20659;-58
2023/02/19 00:38:29;;;;;;;23.67;12.13;;;;;;;8.05;52.06;94889.47;4214532;28;20052;-59
2023/02/19 00:40:30;;;;;;;26.92;13.30;;;;;;;8.02;52.26;94876.69;4194463;28;20045;-58
2023/02/19 00:42:32;;;;;;;30.48;12.75;;;;;;;8.06;52.72;94883.28;4182291;28;20091;-58
2023/02/19 00:44:34;;;;;;;26.60;13.00;;;;;;;8.02;53.05;94889.75;4204614;28;20173;-58
2023/02/19 00:46:39;;;;;;;24.73;12.90;;;;;;;8.06;52.50;94878.06;4210689;28;20055;-57
2023/02/19 00:48:40;;;;;;;24.35;11.38;;;;;;;8.10;52.72;94870.78;4214416;28;20082;-58
2023/02/19 00:50:42;;;;;;;29.80;14.15;;;;;;;8.12;52.26;94861.88;4214306;28;20044;-60
2023/02/19 00:52:44;;;;;;;24.17;12.82;;;;;;;8.16;52.88;94859.81;4195416;28;20079;-57
2023/02/19 00:54:46;;;;;;;21.77;12.30;;;;;;;8.24;52.02;94865.16;4199324;28;20056;-57
2023/02/19 00:56:48;;;;;;;25.90;11.98;;;;;;;8.27;52.50;94854.41;4198098;28;20438;-57
2023/02/19 00:58:49;;;;;;;27.58;13.50;;;;;;;8.35;52.29;94857.16;4190321;28;20617;-58
2023/02/19 01:00:51;;;;;;;19.65;12.55;;;;;;;8.39;52.49;94852.47;4204550;28;20050;-58
2023/02/19 01:02:53;;;;;;;29.60;13.25;;;;;;;8.43;52.04;94851.22;4201355;28;20044;-57
2023/02/19 01:04:54;;;;;;;26.13;11.82;;;;;;;8.39;51.97;94850.69;4208807;28;20080;-54
2023/02/19 01:06:56;;;;;;;19.45;10.40;;;;;;;8.24;51.75;94849.50;4198282;28;20053;-57
2023/02/19 01:08:58;;;;;;;21.70;10.38;;;;;;;7.93;52.74;94865.31;4197039;28;20048;-59
2023/02/19 01:11:01;;;;;;;16.23;9.82;;;;;;;7.81;53.15;94848.19;4181631;28;20556;-60
2023/02/19 01:13:02;;;;;;;17.38;10.52;;;;;;;7.85;53.32;94844.34;4181893;28;20044;-56
2023/02/19 01:15:04;;;;;;;19.98;9.88;;;;;;;7.90;53.22;94852.56;4192429;28;20059;-55
2023/02/19 01:17:06;;;;;;;22.83;10.75;;;;;;;7.47;54.31;94850.38;4195576;28;20486;-58
2023/02/19 01:19:07;;;;;;;20.52;11.02;;;;;;;7.41;54.63;94854.34;4182176;28;20136;-58
2023/02/19 01:21:12;;;;;;;17.83;11.15;;;;;;;7.47;54.75;94847.78;4189810;28;20117;-57
2023/02/19 01:23:13;;;;;;;22.65;10.57;;;;;;;7.64;54.08;94867.94;4189892;28;20101;-57
2023/02/19 01:25:15;;;;;;;21.42;10.23;;;;;;;7.72;53.62;94857.66;4210493;28;20078;-58
2023/02/19 01:27:17;;;;;;;19.52;9.27;;;;;;;7.65;53.80;94861.75;4190183;28;20052;-57
2023/02/19 01:29:18;;;;;;;17.02;9.77;;;;;;;7.76;53.23;94874.66;4193024;28;20052;-58
2023/02/19 01:31:22;;;;;;;18.85;9.52;;;;;;;7.89;52.65;94866.53;4181515;28;20056;-58
2023/02/19 01:33:24;;;;;;;16.77;10.32;;;;;;;8.00;52.17;94869.03;4182093;28;20076;-56
2023/02/19 01:35:26;;;;;;;21.23;9.63;;;;;;;7.97;52.24;94873.69;4181587;28;20056;-58
2023/02/19 01:37:27;;;;;;;17.48;9.95;;;;;;;7.94;52.03;94881.81;4194220;28;20063;-59
2023/02/19 01:39:29;;;;;;;20.08;10.18;;;;;;;8.01;52.78;94890.72;4184703;28;20091;-59
2023/02/19 01:41:34;;;;;;;18.55;9.82;;;;;;;8.09;52.61;94890.84;4197678;28;20136;-58
2023/02/19 01:43:58;;;;;;;21.05;11.20;;;;;;;8.24;52.04;94885.19;4195927;28;20107;-57
2023/02/19 01:46:00;;;;;;;17.98;9.88;;;;;;;8.28;51.15;94881.34;4183565;28;20052;-58
2023/02/19 01:48:01;;;;;;;20.05;9.65;;;;;;;8.25;51.45;94900.72;4202364;28;20688;-58
2023/02/19 01:50:03;;;;;;;19.75;10.10;;;;;;;8.25;51.36;94918.97;4201662;28;20056;-58
2023/02/19 01:52:13;;;;;;;16.92;9.63;;;;;;;8.14;51.51;94899.06;4199959;28;20592;-59
2023/02/19 01:54:16;;;;;;;19.83;10.45;;;;;;;8.18;51.75;94905.66;4209206;28;20467;-59
2023/02/19 01:56:18;;;;;;;19.10;9.82;;;;;;;8.21;51.33;94909.78;4198611;28;20637;-58
2023/02/19 01:58:21;;;;;;;18.05;9.73;;;;;;;8.17;52.37;94914.47;4211332;28;20557;-61
2023/02/19 02:00:23;;;;;;;20.33;10.20;;;;;;;8.15;51.63;94900.75;4200151;28;20053;-61
2023/02/19 02:02:27;;;;;;;21.30;10.80;;;;;;;8.18;51.96;94903.06;4179841;28;20395;-58
2023/02/19 02:04:30;;;;;;;17.10;10.18;;;;;;;8.18;51.61;94897.03;4196206;28;20174;-57
2023/02/19 02:06:50;;;;;;;15.55;9.20;;;;;;;8.24;52.12;94896.47;4209743;28;20079;-59
2023/02/19 02:11:17;;;;;;;16.23;9.18;;;;;;;8.11;51.90;94882.88;4182081;28;20052;-58
2023/02/19 02:13:19;;;;;;;21.98;10.85;;;;;;;8.09;51.96;94883.03;4191712;28;20572;-58
2023/02/19 02:15:22;;;;;;;19.90;9.98;;;;;;;8.09;51.75;94888.25;4196195;28;20107;-58
2023/02/19 02:17:33;;;;;;;19.55;10.40;;;;;;;7.37;53.52;94890.25;4212380;28;20052;-55
2023/02/19 02:20:06;;;;;;;20.30;10.07;;;;;;;7.10;54.41;94884.88;4188074;28;20610;-57
2023/02/19 02:22:16;;;;;;;21.30;11.13;;;;;;;7.13;54.79;94895.03;4203601;28;20048;-57
2023/02/19 02:24:36;;;;;;;19.08;10.30;;;;;;;6.86;55.19;94888.66;4214041;28;20249;-56
2023/02/19 02:26:44;;;;;;;21.98;10.32;;;;;;;7.04;54.84;94893.22;4198882;28;20080;-58
2023/02/19 02:28:54;;;;;;;18.60;10.05;;;;;;;7.24;54.45;94891.50;4193778;28;20049;-57
2023/02/19 02:31:04;;;;;;;20.58;10.30;;;;;;;7.45;53.90;94901.81;4192143;28;20052;-57
2023/02/19 02:33:38;;;;;;;22.60;10.15;;;;;;;7.64;53.26;94906.25;4184420;28;20048;-58
2023/02/19 02:35:50;;;;;;;20.30;10.45;;;;;;;7.76;52.81;94907.75;4191767;28;20047;-58
2023/02/19 02:37:54;;;;;;;19.85;10.00;;;;;;;7.86;52.20;94907.75;4190469;28;20048;-58
2023/02/19 02:39:57;;;;;;;18.00;10.27;;;;;;;7.93;52.07;94911.44;4197197;28;20057;-58
2023/02/19 02:44:19;;;;;;;18.92;11.05;;;;;;;7.82;52.02;94901.16;4185649;28;20083;-58
2023/02/19 02:46:25;;;;;;;19.60;10.23;;;;;;;7.81;52.19;94910.78;4181297;28;20443;-56
2023/02/19 02:48:40;;;;;;;18.38;10.75;;;;;;;7.80;52.12;94920.38;4190827;28;20064;-57
2023/02/19 02:50:52;;;;;;;16.70;10.55;;;;;;;7.88;51.94;94900.63;4187022;28;20178;-57
2023/02/19 02:55:21;;;;;;;21.00;10.15;;;;;;;7.61;52.41;94907.31;4192296;28;20482;-57
2023/02/19 02:57:23;;;;;;;15.77;9.52;;;;;;;7.56;53.22;94918.16;4206191;28;20109;-59
2023/02/19 02:59:28;;;;;;;19.67;9.73;;;;;;;7.64;53.11;94904.44;4197444;28;20037;-59
2023/02/19 03:04:02;;;;;;;18.17;10.07;;;;;;;7.88;52.38;94895.41;4210693;28;20436;-61
2023/02/19 03:06:06;;;;;;;21.33;10.32;;;;;;;7.94;51.46;94900.06;4211491;28;20040;-56
2023/02/19 03:08:14;;;;;;;20.50;10.48;;;;;;;7.93;51.95;94904.44;4211748;28;20419;-59
2023/02/19 03:10:19;;;;;;;23.08;10.43;;;;;;;7.82;52.58;94919.41;4211608;28;20557;-57
2023/02/19 03:19:55;;;;;;;19.65;11.13;;;;;;;7.20;54.36;94906.56;4209020;28;20141;-56
2023/02/19 03:22:18;;;;;;;19.73;10.60;;;;;;;7.37;54.29;94908.50;4185517;28;20088;-57
2023/02/19 03:26:44;;;;;;;16.58;11.05;;;;;;;7.29;53.44;94924.00;4193440;28;20052;-60
2023/02/19 03:31:11;;;;;;;24.92;11.38;;;;;;;7.18;54.57;94929.31;4180043;28;20279;-59
2023/02/19 03:33:25;;;;;;;18.27;11.10;;;;;;;7.11;54.99;94933.41;4195731;28;20441;-57
2023/02/19 03:35:31;;;;;;;17.83;10.47;;;;;;;7.17;54.68;94943.31;4195898;28;20051;-57
2023/02/19 03:37:43;;;;;;;22.15;10.68;;;;;;;7.33;53.85;94941.00;4183516;28;20053;-59
2023/02/19 03:39:45;;;;;;;23.83;11.25;;;;;;;7.45;54.08;94938.31;4179890;28;20076;-59
2023/02/19 03:42:12;;;;;;;22.02;11.13;;;;;;;7.51;54.06;94956.03;4186637;28;20140;-57
2023/02/19 03:44:17;;;;;;;18.25;11.00;;;;;;;7.57;53.65;94947.66;4184242;28;20049;-59
2023/02/19 03:46:29;;;;;;;19.48;11.13;;;;;;;7.61;53.94;94943.00;4193730;28;20044;-58
2023/02/19 03:48:35;;;;;;;21.75;10.45;;;;;;;7.67;53.60;94940.66;4183730;28;20045;-55
2023/02/19 03:50:57;;;;;;;16.98;11.10;;;;;;;7.52;53.63;94949.84;4186318;28;20094;-58
2023/02/19 03:53:11;;;;;;;17.80;10.65;;;;;;;7.44;53.98;94941.88;4183297;28;20082;-54
2023/02/19 03:55:30;;;;;;;18.77;10.90;;;;;;;7.46;53.90;94943.38;4187642;28;20049;-58
2023/02/19 03:57:46;;;;;;;18.65;11.40;;;;;;;7.52;53.47;94949.84;4196042;28;20087;-58
2023/02/19 03:59:56;;;;;;;22.77;11.13;;;;;;;7.61;53.44;94956.03;4191758;28;20166;-57
2023/02/19 04:02:03;;;;;;;20.60;10.70;;;;;;;7.64;53.55;94958.38;4205716;28;20044;-57
2023/02/19 04:04:18;;;;;;;33.50;11.27;;;;;;;7.72;53.53;94954.16;4202178;28;20565;-56
2023/02/19 04:06:25;;;;;;;15.38;10.15;;;;;;;7.65;52.89;94958.22;4198511;28;20041;-57
2023/02/19 04:08:27;;;;;;;18.42;10.20;;;;;;;7.70;53.55;94960.44;4190466;28;20140;-59
2023/02/19 04:10:30;;;;;;;19.83;10.88;;;;;;;7.78;53.30;94971.00;4201346;28;20044;-58
2023/02/19 04:12:32;;;;;;;18.15;9.68;;;;;;;7.86;52.35;94962.53;4207841;28;20051;-58
2023/02/19 04:15:01;;;;;;;20.20;9.73;;;;;;;7.94;52.64;94963.50;4205257;28;20504;-58
2023/02/19 04:17:15;;;;;;;15.60;8.77;;;;;;;7.93;51.43;94967.06;4193845;28;20049;-56
2023/02/19 04:19:19;;;;;;;14.63;8.45;;;;;;;7.87;51.91;94972.00;4206569;28;20044;-57
2023/02/19 04:21:23;;;;;;;20.83;8.77;;;;;;;7.94;51.65;94980.94;4192076;28;20478;-57
2023/02/19 04:23:25;;;;;;;;;;;;;;;8.02;51.61;94975.84;4203516;28;20041;-56
2023/02/19 04:25:28;;;;;;;18.48;9.48;;;;;;;8.04;52.27;94976.53;4199928;28;19952;-59
2023/02/19 04:27:30;;;;;;;20.20;9.38;;;;;;;7.97;51.95;94978.03;4195437;28;20128;-57
2023/02/19 04:29:31;;;;;;;15.23;9.27;;;;;;;7.87;52.14;94958.94;4208500;28;20079;-59
2023/02/19 04:31:34;;;;;;;25.05;9.95;;;;;;;7.91;52.34;94974.19;4210528;28;20470;-61
2023/02/19 04:33:36;;;;;;;17.42;10.68;;;;;;;7.90;52.63;94969.13;4212327;28;20123;-56
2023/02/19 04:35:38;;;;;;;20.92;10.02;;;;;;;7.87;52.52;94980.66;4212391;28;20048;-59
2023/02/19 04:37:40;;;;;;;22.42;11.20;;;;;;;7.86;52.38;94962.53;4210247;28;20097;-55
2023/02/19 04:39:41;;;;;;;20.65;10.18;;;;;;;7.84;52.95;94975.69;4199761;28;20574;-56
2023/02/19 04:41:43;;;;;;;20.85;10.13;;;;;;;7.84;52.77;94977.50;4205761;28;20052;-59
2023/02/19 04:43:44;;;;;;;15.82;9.20;;;;;;;7.77;52.48;94983.25;4211030;28;20101;-55
2023/02/19 04:45:46;;;;;;;24.33;12.68;;;;;;;7.74;52.47;94967.03;4210613;28;20052;-57
2023/02/19 04:48:07;;;;;;;24.33;10.80;;;;;;;7.76;53.01;94976.34;4202123;28;20053;-54
2023/02/19 04:50:09;;;;;;;13.57;8.80;;;;;;;7.72;53.04;94985.44;4190175;28;20049;-53
2023/02/19 04:52:10;;;;;;;20.20;9.32;;;;;;;7.66;53.21;94983.38;4195305;28;20102;-56
2023/02/19 04:54:12;;;;;;;17.77;9.52;;;;;;;7.70;53.13;94984.75;4211468;28;20475;-57
2023/02/19 04:56:15;;;;;;;15.07;9.77;;;;;;;7.68;52.93;94986.66;4200957;28;20090;-56
2023/02/19 04:58:17;;;;;;;17.50;10.07;;;;;;;7.72;52.75;94992.41;4202199;28;20125;-61
2023/02/19 05:00:18;;;;;;;17.88;8.93;;;;;;;7.76;52.32;94981.56;4189519;28;20277;-57
2023/02/19 05:02:20;;;;;;;16.25;9.23;;;;;;;7.83;52.12;94997.53;4192772;28;20056;-57
2023/02/19 05:04:22;;;;;;;12.88;7.68;;;;;;;7.84;52.22;94990.53;4179213;28;20049;-55
2023/02/19 05:06:24;;;;;;;15.15;7.95;;;;;;;7.74;52.24;94991.34;4186435;28;20132;-57
2023/02/19 05:08:26;;;;;;;15.48;6.85;;;;;;;7.78;51.77;94992.69;4184126;28;20132;-56
2023/02/19 05:10:27;;;;;;;9.93;6.70;;;;;;;7.85;51.71;94994.78;4179025;28;20057;-57
2023/02/19 05:12:30;;;;;;;10.02;5.93;;;;;;;7.85;51.35;94989.56;4178641;28;20127;-59
2023/02/19 05:14:31;;;;;;;9.43;5.95;;;;;;;7.93;51.18;94987.91;4179447;28;20102;-60
2023/02/19 05:16:33;;;;;;;8.70;5.82;;;;;;;7.91;50.69;94984.63;4177546;28;20053;-60
2023/02/19 05:18:35;;;;;;;10.02;5.45;;;;;;;7.96;51.67;94992.06;4181295;28;20057;-58
2023/02/19 05:20:36;;;;;;;10.02;5.63;;;;;;;8.07;50.87;94989.31;4182526;28;20079;-60
2023/02/19 05:22:38;;;;;;;10.75;6.28;;;;;;;8.20;50.84;94991.66;4182711;28;20049;-59
2023/02/19 05:24:39;;;;;;;8.80;5.13;;;;;;;8.15;50.77;94997.28;4182401;28;20052;-59
2023/02/19 05:26:41;;;;;;;9.95;5.50;;;;;;;8.29;50.69;95003.88;4197400;28;20048;-58
2023/02/19 05:28:47;;;;;;;9.93;5.22;;;;;;;8.43;50.98;94996.63;4191980;28;20059;-60
2023/02/19 05:30:50;;;;;;;9.43;5.25;;;;;;;8.61;50.68;94993.16;4181841;28;20053;-59
2023/02/19 05:32:52;;;;;;;9.60;4.65;;;;;;;8.84;50.15;94992.03;4182910;28;20533;-60
2023/02/19 05:34:53;;;;;;;6.82;4.93;;;;;;;9.02;49.99;94990.34;4194847;28;20561;-60
2023/02/19 05:36:55;;;;;;;10.13;4.57;;;;;;;9.17;49.85;94998.53;4190281;28;20624;-61
2023/02/19 05:38:57;;;;;;;8.85;5.30;;;;;;;9.31;49.31;94990.22;4187725;28;20124;-61
2023/02/19 05:41:25;;;;;;;5.90;4.25;;;;;;;9.48;49.35;94996.47;4195670;28;20057;-58
2023/02/19 05:43:27;;;;;;;9.65;4.80;;;;;;;9.65;48.46;94997.50;4183030;28;20691;-58
2023/02/19 05:45:29;;;;;;;8.20;4.78;;;;;;;9.78;48.10;95003.19;4182973;28;20084;-59
2023/02/19 05:47:30;;;;;;;7.32;4.53;;;;;;;9.92;47.86;95001.06;4196768;28;20564;-58
2023/02/19 05:49:32;;;;;;;7.75;4.90;;;;;;;10.04;47.94;94999.88;4192956;28;20073;-58
2023/02/19 05:51:34;;;;;;;8.68;4.93;;;;;;;10.15;47.59;94999.69;4183168;28;20068;-55
2023/02/19 05:53:36;;;;;;;8.30;4.47;;;;;;;10.25;47.12;94992.56;4183299;28;20053;-56
2023/02/19 05:55:37;;;;;;;9.65;4.88;;;;;;;10.39;47.03;95000.88;4197045;28;20048;-57
2023/02/19 05:57:44;;;;;;;10.27;5.25;;;;;;;10.50;46.68;95002.47;4197608;28;20087;-59
2023/02/19 05:59:45;;;;;;;9.23;4.78;;;;;;;10.60;46.80;95021.53;4189362;28;20036;-59
2023/02/19 06:01:48;;;;;;;9.07;5.30;;;;;;;10.68;46.54;95026.03;4205456;28;20075;-57
2023/02/19 06:03:50;;;;;;;12.40;6.32;;;;;;;10.35;46.71;95026.56;4201018;28;20052;-60
2023/02/19 06:05:52;;;;;;;7.25;4.72;;;;;;;10.45;47.13;95029.94;4214016;28;20451;-59
2023/02/19 06:07:53;;;;;;;10.15;5.00;;;;;;;10.47;46.78;95031.56;4207536;28;20083;-60
2023/02/19 06:09:55;;;;;;;7.70;4.80;;;;;;;10.60;47.13;95032.84;4208113;28;20044;-60
2023/02/19 06:11:57;;;;;;;6.43;4.43;;;;;;;10.70;46.52;95039.78;4213467;28;20058;-62
2023/02/19 06:13:58;;;;;;;9.52;4.90;;;;;;;10.77;46.68;95041.66;4214584;28;20123;-60
2023/02/19 06:16:03;;;;;;;10.88;5.80;;;;;;;10.80;46.49;95056.25;4205188;28;20056;-59
2023/02/19 06:18:05;;;;;;;6.45;4.60;;;;;;;10.87;46.76;95036.31;4208511;28;20051;-60
2023/02/19 06:20:07;;;;;;;8.77;5.28;;;;;;;10.96;46.46;95040.66;4213506;28;20105;-60
2023/02/19 06:22:09;;;;;;;11.20;5.05;;;;;;;10.93;46.71;95045.41;4213939;28;20063;-59
2023/02/19 06:24:10;;;;;;;8.77;5.15;;;;;;;10.94;46.27;95042.59;4214297;28;20452;-61
2023/02/19 06:26:14;;;;;;;8.32;4.80;;;;;;;11.02;46.34;95044.47;4201401;28;20131;-62
2023/02/19 06:28:16;;;;;;;7.35;5.18;;;;;;;11.03;46.22;95041.69;4207724;28;20527;-62
2023/02/19 06:30:18;;;;;;;7.40;4.95;;;;;;;11.12;45.88;95049.59;4180338;28;20037;-61
2023/02/19 06:32:19;;;;;;;10.93;5.07;;;;;;;11.13;45.98;95049.44;4189569;28;20189;-60
2023/02/19 06:34:21;;;;;;;10.23;5.57;;;;;;;11.12;46.10;95050.44;4205942;28;20076;-54
2023/02/19 06:36:23;;;;;;;9.40;5.28;;;;;;;11.09;46.06;95044.66;4188014;28;20047;-56
2023/02/19 06:38:25;;;;;;;10.90;5.82;;;;;;;11.15;46.25;95041.44;4214120;28;20044;-57
2023/02/19 06:40:27;;;;;;;12.18;5.40;;;;;;;11.18;45.76;95044.56;4210131;28;20052;-56
2023/02/19 06:42:32;;;;;;;12.45;4.78;;;;;;;11.13;45.96;95044.22;4210434;28;20059;-55
2023/02/19 06:44:34;;;;;;;8.07;5.35;;;;;;;11.13;45.69;95046.81;4213693;28;20073;-54
2023/02/19 06:46:35;;;;;;;13.60;5.90;;;;;;;11.07;45.96;95043.00;4211958;28;20082;-54
2023/02/19 06:48:38;;;;;;;10.82;6.00;;;;;;;10.99;46.22;95050.00;4213504;28;20599;-54
2023/02/19 06:50:40;;;;;;;9.60;5.32;;;;;;;10.97;46.13;95051.94;4211673;28;20052;-56
2023/02/19 06:52:41;;;;;;;8.93;5.20;;;;;;;10.90;46.33;95048.31;4213465;28;20040;-57
2023/02/19 06:54:43;;;;;;;12.30;6.22;;;;;;;10.93;46.69;95058.50;4211176;28;20128;-59
2023/02/19 06:56:44;;;;;;;15.40;5.55;;;;;;;11.03;46.07;95046.09;4202027;28;20490;-54
2023/02/19 06:58:47;;;;;;;9.68;5.88;;;;;;;11.16;45.79;95051.75;4213435;28;20386;-56
2023/02/19 07:00:49;;;;;;;10.90;5.78;;;;;;;11.13;45.63;95054.69;4200471;28;20045;-57
2023/02/19 07:02:55;;;;;;;9.90;5.82;;;;;;;11.07;45.76;95056.13;4203624;28;20129;-55
2023/02/19 07:04:57;;;;;;;16.08;7.05;;;;;;;11.18;45.53;95059.47;4180033;28;20049;-55
2023/02/19 07:06:59;;;;;;;13.52;6.78;;;;;;;11.06;45.94;95064.97;4179999;28;20605;-60
2023/02/19 07:09:02;;;;;;;16.50;7.45;;;;;;;10.92;46.46;95062.91;4182502;28;20044;-53
2023/02/19 07:11:04;;;;;;;;;;;;;;;10.80;46.25;95061.50;4190469;28;20110;-54
2023/02/19 07:13:06;;;;;;;17.40;7.65;;;;;;;10.69;46.27;95061.72;4189889;28;19921;-57
2023/02/19 07:15:08;;;;;;;14.15;7.65;;;;;;;10.47;47.07;95061.19;4183820;28;20144;-54
2023/02/19 07:17:09;;;;;;;14.20;6.45;;;;;;;10.28;47.12;95066.53;4178571;28;20075;-54
2023/02/19 07:19:11;;;;;;;15.55;7.28;;;;;;;10.21;47.73;95063.69;4187342;28;20075;-56
2023/02/19 07:21:14;;;;;;;15.63;6.80;;;;;;;10.24;46.92;95061.63;4196745;28;20144;-57
2023/02/19 07:23:16;;;;;;;15.07;7.82;;;;;;;10.20;47.16;95056.81;4183666;28;20099;-53
2023/02/19 07:25:17;;;;;;;15.73;7.13;;;;;;;10.37;47.11;95053.44;4184687;28;20048;-56
2023/02/19 07:27:19;;;;;;;17.10;6.97;;;;;;;10.40;46.77;95050.50;4195989;28;20102;-52
2023/02/19 07:29:21;;;;;;;20.15;7.90;;;;;;;10.47;46.67;95050.72;4208109;28;20048;-58
2023/02/19 07:31:23;;;;;;;14.95;6.32;;;;;;;10.50;46.47;95047.81;4209550;28;20101;-54
2023/02/19 07:33:25;;;;;;;11.93;6.50;;;;;;;10.72;46.41;95037.84;4201525;28;20135;-55
2023/02/19 07:35:27;;;;;;;11.65;6.50;;;;;;;10.96;46.23;95037.22;4203397;28;20524;-57
2023/02/19 07:37:28;;;;;;;10.52;5.60;;;;;;;10.97;45.82;95041.47;4207459;28;20105;-58
2023/02/19 07:39:30;;;;;;;11.43;6.47;;;;;;;11.07;45.50;95037.78;4209534;28;20138;-56
2023/02/19 07:41:32;;;;;;;14.23;6.55;;;;;;;11.30;45.35;95028.59;4198203;28;20044;-55
2023/02/19 07:43:35;;;;;;;15.00;7.55;;;;;;;11.42;45.10;95030.78;4211472;28;20051;-51
2023/02/19 07:45:37;;;;;;;17.55;6.90;;;;;;;11.48;44.83;95040.63;4199237;28;20083;-54
2023/02/19 07:47:38;;;;;;;9.68;5.75;;;;;;;11.44;44.98;95028.84;4209367;28;20115;-53
2023/02/19 07:49:40;;;;;;;13.48;5.93;;;;;;;11.55;44.78;95025.13;4211111;28;20047;-57
2023/02/19 07:51:43;;;;;;;9.40;5.45;;;;;;;11.45;44.77;95022.59;4202619;28;20135;-54
2023/02/19 07:53:45;;;;;;;10.15;6.10;;;;;;;11.37;45.07;95025.16;4207002;28;20126;-58
2023/02/19 07:55:47;;;;;;;11.10;6.22;;;;;;;11.59;44.76;95033.47;4203551;28;20064;-55
2023/02/19 07:57:48;;;;;;;11.52;5.93;;;;;;;11.50;44.92;95031.78;4183453;28;20120;-57
2023/02/19 07:59:50;;;;;;;11.05;6.30;;;;;;;11.48;44.88;95027.50;4193690;28;20049;-54
2023/02/19 08:04:13;;;;;;;12.25;6.05;;;;;;;11.77;44.53;95025.53;4199514;28;20051;-56
2023/02/19 08:06:14;;;;;;;8.88;5.88;;;;;;;11.81;44.55;95032.13;4185741;28;20041;-55
2023/02/19 08:08:16;;;;;;;11.05;6.60;;;;;;;11.99;43.98;95029.41;4182495;28;20128;-56
2023/02/19 08:14:59;;;;;;;9.95;5.28;;;;;;;12.20;43.83;95019.28;4185491;28;20049;-56
2023/02/19 08:17:00;;;;;;;9.80;6.38;;;;;;;12.31;43.88;95026.03;4198598;28;20053;-57
2023/02/19 08:19:02;;;;;;;11.13;5.65;;;;;;;12.25;43.97;95024.88;4197060;28;20142;-56
2023/02/19 08:21:04;;;;;;;9.93;5.60;;;;;;;12.41;43.90;95018.84;4200139;28;20040;-56
2023/02/19 08:23:06;;;;;;;7.82;5.20;;;;;;;12.59;42.67;95023.94;4191382;28;20127;-54
2023/02/19 08:25:08;;;;;;;9.43;4.82;;;;;;;12.70;42.48;95023.59;4200817;28;20052;-56
2023/02/19 08:27:10;;;;;;;7.93;4.68;;;;;;;12.87;42.11;95024.44;4202755;28;20094;-54
2023/02/19 08:29:11;;;;;;;7.10;4.25;;;;;;;13.04;41.73;95027.06;4200422;28;20533;-55
2023/02/19 08:31:13;;;;;;;9.57;4.68;;;;;;;13.03;41.94;95020.94;4195446;28;20056;-57
2023/02/19 08:33:17;;;;;;;6.15;3.88;;;;;;;13.23;41.88;95026.69;4184400;28;20119;-55
2023/02/19 08:35:19;;;;;;;;;;;;;;;13.35;41.59;95023.75;4190190;28;20052;-52
2023/02/19 08:37:21;;;;;;;6.15;4.13;;;;;;;13.52;41.05;95018.25;4180692;28;20011;-56
2023/02/19 08:39:22;;;;;;;9.02;4.03;;;;;;;13.79;40.77;95018.84;4195002;28;20506;-56
2023/02/19 08:41:24;;;;;;;8.45;4.63;;;;;;;13.82;40.32;95017.66;4185813;28;20079;-57
2023/02/19 08:43:26;;;;;;;6.03;3.80;;;;;;;13.85;39.91;95010.25;4187921;28;20045;-56
2023/02/19 08:45:27;;;;;;;6.82;4.43;;;;;;;13.85;39.78;95019.94;4206866;28;20048;-54
2023/02/19 08:47:29;;;;;;;6.75;4.00;;;;;;;13.98;39.59;95008.88;4210757;28;20517;-57
2023/02/19 08:49:31;;;;;;;9.23;4.07;;;;;;;14.05;39.80;95009.84;4202630;28;20049;-54
2023/02/19 08:51:32;;;;;;;8.32;4.30;;;;;;;14.15;39.27;95015.69;4179241;28;20045;-56
2023/02/19 08:53:35;;;;;;;8.77;4.38;;;;;;;14.24;39.13;95003.28;4193117;28;20059;-55
2023/02/19 08:55:37;;;;;;;7.75;4.82;;;;;;;14.25;38.87;95004.94;4192839;28;20075;-56
2023/02/19 08:57:39;;;;;;;7.82;4.50;;;;;;;14.28;39.43;95000.16;4210907;28;20098;-54
2023/02/19 08:59:41;;;;;;;5.72;4.07;;;;;;;14.37;39.36;95005.34;4212243;28;20139;-59
2023/02/19 09:01:42;;;;;;;8.77;4.47;;;;;;;14.30;39.79;94994.69;4206073;28;20127;-58
2023/02/19 09:03:44;;;;;;;9.10;4.00;;;;;;;14.44;39.49;94993.13;4215681;28;20087;-56
2023/02/19 09:05:46;;;;;;;5.43;3.75;;;;;;;14.53;39.50;94997.34;4215439;28;20048;-54
2023/02/19 09:07:48;;;;;;;6.43;4.03;;;;;;;14.70;39.55;94990.16;4215824;28;20055;-55
2023/02/19 09:09:50;;;;;;;7.53;4.28;;;;;;;14.77;39.07;94985.00;4206258;28;20048;-57
2023/02/19 09:11:52;;;;;;;9.68;4.95;;;;;;;14.67;39.41;94983.44;4186638;28;20044;-56
2023/02/19 09:13:55;;;;;;;6.93;4.15;;;;;;;14.87;39.47;94989.03;4186823;28;20451;-57
2023/02/19 09:15:57;;;;;;;6.80;4.15;;;;;;;14.80;39.53;94985.47;4198198;28;20048;-53
2023/02/19 09:17:58;;;;;;;6.45;4.22;;;;;;;14.86;39.51;94965.44;4189982;28;20128;-57
2023/02/19 09:20:00;;;;;;;7.63;4.18;;;;;;;14.97;39.74;94972.13;4185424;28;20045;-56
2023/02/19 09:22:03;;;;;;;9.13;4.20;;;;;;;14.59;41.33;94982.66;4187688;28;20048;-56
2023/02/19 09:24:08;;;;;;;7.85;4.53;;;;;;;14.77;40.43;94967.34;4192586;28;20088;-62
2023/02/19 09:26:10;;;;;;;7.25;4.10;;;;;;;14.82;39.60;94972.91;4194381;28;20064;-60
2023/02/19 09:28:12;;;;;;;6.47;3.90;;;;;;;14.89;39.68;94978.28;4209357;28;20095;-61
2023/02/19 09:30:13;;;;;;;8.65;3.60;;;;;;;15.15;39.72;94968.13;4182053;28;20067;-60
2023/02/19 09:32:15;;;;;;;6.43;3.83;;;;;;;15.26;39.70;94966.06;4190220;28;20075;-59
2023/02/19 09:34:19;;;;;;;7.13;4.07;;;;;;;14.87;40.65;94980.28;4185777;28;20076;-61
2023/02/19 09:36:21;;;;;;;7.13;4.20;;;;;;;14.91;39.91;94971.03;4182658;28;20049;-60
2023/02/19 09:38:23;;;;;;;4.97;3.22;;;;;;;15.10;39.24;94961.75;4183225;28;20135;-60
2023/02/19 09:40:24;;;;;;;10.10;4.50;;;;;;;15.20;39.26;94967.59;4192194;28;20040;-61
2023/02/19 09:42:29;;;;;;;12.00;5.28;;;;;;;15.38;38.91;94966.41;4185308;28;20049;-62
2023/02/19 09:44:33;;;;;;;5.90;3.35;;;;;;;15.26;39.37;94966.88;4200611;28;20082;-59
2023/02/19 09:46:44;;;;;;;6.57;4.13;;;;;;;14.51;40.53;94983.50;4211915;28;20424;-59
2023/02/19 09:48:46;;;;;;;7.57;3.72;;;;;;;14.63;40.46;94965.50;4214170;28;20056;-58
2023/02/19 09:50:48;;;;;;;6.13;3.80;;;;;;;14.74;39.89;94957.97;4212893;28;20057;-60
2023/02/19 09:52:52;;;;;;;6.50;4.30;;;;;;;14.58;40.04;94952.81;4213936;28;20577;-60
2023/02/19 09:54:56;;;;;;;;;;;;;;;14.45;40.37;94949.94;4207998;28;20052;-60
2023/02/19 09:57:00;;;;;;;9.55;5.22;;;;;;;14.31;40.61;94946.28;4196057;28;19948;-61
2023/02/19 09:59:02;;;;;;;9.23;5.38;;;;;;;14.41;40.69;94935.47;4193032;28;20087;-61
2023/02/19 10:01:06;;;;;;;6.05;4.10;;;;;;;14.77;39.46;94933.06;4185477;28;20052;-61
2023/02/19 10:03:16;;;;;;;8.02;4.95;;;;;;;15.14;38.97;94921.66;4198387;28;20049;-60
2023/02/19 10:05:18;;;;;;;6.63;3.85;;;;;;;15.38;38.11;94922.38;4185130;28;20100;-60
2023/02/19 10:07:25;;;;;;;7.20;4.55;;;;;;;15.24;38.02;94920.56;4196297;28;20076;-61
2023/02/19 10:09:28;;;;;;;6.72;3.88;;;;;;;15.36;37.87;94911.19;4180716;28;20119;-61
2023/02/19 10:11:30;;;;;;;6.43;4.45;;;;;;;15.67;37.60;94916.22;4181391;28;20483;-62